Time;durP1;ratioP1;P1;durP2;ratioP2;P2;SDS_P1;SDS_P2;PMS_P1;PMS_P2;Temp;Humidity;BMP_temperature;BMP_pressure;BME280_temperature;BME280_humidity;BME280_pressure;Samples;Min_cycle;Max_cycle;Signal;HPM_P1;HPM_P2
2022/01/13 00:02:03;;;;;;;62.45;24.73;;;;;;;;;;5072089;28;20028;-68
2022/01/13 00:04:29;;;;;;;81.20;30.08;;;;;;;;;;5071807;28;20029;-67
2022/01/13 00:06:55;;;;;;;42.53;16.73;;;;;;;;;;5071863;28;20078;-66
2022/01/13 00:09:21;;;;;;;31.80;14.02;;;;;;;;;;5071887;28;20055;-67
2022/01/13 00:11:48;;;;;;;22.45;10.07;;;;;;;;;;5070183;28;20474;-67
2022/01/13 00:17:35;;;;;;;21.02;10.48;;;;;;;;;;5071628;28;20075;-67
2022/01/13 00:22:38;;;;;;;22.25;11.32;;;;;;;;;;5071234;28;20025;-67
2022/01/13 00:25:07;;;;;;;19.45;9.05;;;;;;;;;;5071561;28;20029;-67
2022/01/13 00:27:35;;;;;;;19.48;8.18;;;;;;;;;;5071650;28;20104;-67
2022/01/13 00:30:02;;;;;;;17.58;8.52;;;;;;;;;;5071283;28;20032;-68
2022/01/13 00:32:30;;;;;;;19.80;9.38;;;;;;;;;;5071241;28;20122;-67
2022/01/13 00:34:57;;;;;;;16.42;8.02;;;;;;;;;;5071191;28;20497;-67
2022/01/13 00:37:23;;;;;;;18.00;7.93;;;;;;;;;;5071484;28;20143;-69
2022/01/13 00:39:48;;;;;;;13.98;7.35;;;;;;;;;;5069700;28;20197;-67
2022/01/13 00:42:13;;;;;;;16.70;8.10;;;;;;;;;;5070948;28;20482;-68
2022/01/13 00:44:39;;;;;;;21.05;8.27;;;;;;;;;;5071012;28;20056;-68
2022/01/13 00:47:09;;;;;;;14.90;7.38;;;;;;;;;;5070945;28;20048;-68
2022/01/13 00:49:34;;;;;;;15.82;7.45;;;;;;;;;;5071437;28;20024;-67
2022/01/13 00:52:00;;;;;;;15.40;6.47;;;;;;;;;;5070791;28;20078;-67
2022/01/13 00:54:25;;;;;;;14.88;5.90;;;;;;;;;;5070513;28;20507;-66
2022/01/13 00:56:51;;;;;;;15.45;7.35;;;;;;;;;;5071082;28;20035;-68
2022/01/13 00:59:17;;;;;;;15.23;6.90;;;;;;;;;;5070624;28;20024;-67
2022/01/13 01:01:45;;;;;;;15.90;6.80;;;;;;;;;;5070845;28;20104;-67
2022/01/13 01:04:11;;;;;;;13.88;6.65;;;;;;;;;;5071073;28;20025;-67
2022/01/13 01:06:37;;;;;;;12.65;5.57;;;;;;;;;;5070910;28;20017;-66
2022/01/13 01:09:04;;;;;;;13.38;6.50;;;;;;;;;;5070702;28;20027;-68
2022/01/13 01:11:29;;;;;;;12.13;5.63;;;;;;;;;;5070420;28;20039;-67
2022/01/13 01:13:55;;;;;;;10.48;4.95;;;;;;;;;;5070417;28;20021;-68
2022/01/13 01:16:22;;;;;;;9.02;4.80;;;;;;;;;;5070333;28;20040;-68
2022/01/13 01:26:42;;;;;;;8.55;4.22;;;;;;;;;;5070390;28;20036;-67
2022/01/13 01:31:49;;;;;;;8.43;4.40;;;;;;;;;;5070214;28;20059;-67
2022/01/13 01:36:41;;;;;;;8.05;4.07;;;;;;;;;;5070495;28;20169;-68
2022/01/13 01:39:08;;;;;;;8.88;4.25;;;;;;;;;;5070373;28;20021;-66
2022/01/13 01:41:39;;;;;;;8.57;4.10;;;;;;;;;;5070446;28;20031;-67
2022/01/13 01:44:41;;;;;;;9.48;3.85;;;;;;;;;;5069934;28;20384;-68
2022/01/13 01:47:10;;;;;;;12.32;4.40;;;;;;;;;;5069982;28;20025;-66
2022/01/13 01:49:41;;;;;;;9.13;4.40;;;;;;;;;;5070025;28;20025;-67
2022/01/13 01:52:07;;;;;;;;;;;;;;;;;;5071027;28;20047;-68
2022/01/13 01:54:33;;;;;;;10.23;4.30;;;;;;;;;;5070096;28;19919;-67
2022/01/13 01:56:58;;;;;;;7.88;4.10;;;;;;;;;;5070272;28;20033;-66
2022/01/13 01:59:28;;;;;;;11.13;4.55;;;;;;;;;;5073780;28;20032;-67
2022/01/13 02:01:54;;;;;;;9.00;4.73;;;;;;;;;;5076611;28;20028;-67
2022/01/13 02:04:24;;;;;;;10.73;4.70;;;;;;;;;;5076856;28;20479;-68
2022/01/13 02:06:49;;;;;;;12.13;4.78;;;;;;;;;;5076436;28;20478;-66
2022/01/13 02:09:17;;;;;;;8.18;4.65;;;;;;;;;;5076676;28;20475;-66
2022/01/13 02:11:46;;;;;;;10.43;4.78;;;;;;;;;;5076521;28;20037;-68
2022/01/13 02:16:52;;;;;;;11.23;4.60;;;;;;;;;;5076213;28;20044;-68
2022/01/13 02:19:18;;;;;;;11.18;4.30;;;;;;;;;;5076522;28;20737;-68
2022/01/13 02:21:44;;;;;;;8.25;4.00;;;;;;;;;;5076337;28;20032;-68
2022/01/13 02:24:10;;;;;;;10.82;3.97;;;;;;;;;;5076446;28;20101;-67
2022/01/13 02:26:36;;;;;;;8.50;3.55;;;;;;;;;;5076580;28;20016;-66
2022/01/13 02:29:02;;;;;;;9.00;4.03;;;;;;;;;;5076437;28;20024;-66
2022/01/13 02:31:28;;;;;;;8.20;4.03;;;;;;;;;;5076517;28;20393;-66
2022/01/13 02:33:54;;;;;;;10.50;4.00;;;;;;;;;;5075951;28;20037;-66
2022/01/13 02:36:22;;;;;;;8.90;4.00;;;;;;;;;;5076343;28;20422;-67
2022/01/13 02:38:53;;;;;;;10.65;4.50;;;;;;;;;;5076144;28;20472;-66
2022/01/13 02:41:18;;;;;;;;;;;;;;;;;;5076742;28;20033;-67
2022/01/13 02:43:45;;;;;;;8.98;3.75;;;;;;;;;;5076494;28;19923;-66
2022/01/13 02:49:09;;;;;;;6.15;3.35;;;;;;;;;;5076139;28;20408;-67
2022/01/13 02:51:36;;;;;;;8.50;3.58;;;;;;;;;;5076169;28;20025;-67
2022/01/13 02:54:04;;;;;;;7.60;3.92;;;;;;;;;;5075861;28;20035;-67
2022/01/13 02:56:30;;;;;;;9.25;3.65;;;;;;;;;;5075931;28;20052;-66
2022/01/13 02:58:56;;;;;;;10.70;4.07;;;;;;;;;;5075770;28;20025;-67
2022/01/13 03:01:21;;;;;;;7.10;3.65;;;;;;;;;;5074966;28;20028;-66
2022/01/13 03:03:47;;;;;;;7.25;3.35;;;;;;;;;;5076065;28;20027;-66
2022/01/13 03:06:15;;;;;;;7.32;3.22;;;;;;;;;;5076177;28;20431;-66
2022/01/13 03:08:46;;;;;;;7.75;3.33;;;;;;;;;;5075898;28;20024;-67
2022/01/13 03:11:12;;;;;;;6.72;2.97;;;;;;;;;;5072151;28;20059;-66
2022/01/13 03:13:38;;;;;;;6.97;3.00;;;;;;;;;;5072866;28;20090;-67
2022/01/13 03:16:06;;;;;;;7.22;3.05;;;;;;;;;;5072476;28;20044;-66
2022/01/13 03:18:31;;;;;;;6.45;3.08;;;;;;;;;;5073042;28;20037;-67
2022/01/13 03:20:56;;;;;;;6.63;2.80;;;;;;;;;;5072756;28;20446;-68
2022/01/13 03:23:22;;;;;;;8.70;3.15;;;;;;;;;;5072758;28;20392;-67
2022/01/13 03:25:48;;;;;;;5.30;2.50;;;;;;;;;;5072599;28;20013;-66
2022/01/13 03:28:28;;;;;;;6.38;2.50;;;;;;;;;;5072250;28;20423;-66
2022/01/13 03:30:54;;;;;;;6.05;2.50;;;;;;;;;;5072558;28;20021;-66
2022/01/13 03:33:20;;;;;;;8.90;3.25;;;;;;;;;;5072589;28;20024;-68
2022/01/13 03:35:45;;;;;;;12.15;2.45;;;;;;;;;;5072542;28;20099;-67
2022/01/13 03:38:11;;;;;;;5.85;2.70;;;;;;;;;;5072762;28;20060;-67
2022/01/13 03:40:37;;;;;;;6.18;2.50;;;;;;;;;;5072540;28;20521;-66
2022/01/13 03:43:04;;;;;;;5.78;2.33;;;;;;;;;;5072368;28;20094;-66
2022/01/13 03:45:32;;;;;;;3.97;2.10;;;;;;;;;;5072368;28;20082;-66
2022/01/13 03:47:58;;;;;;;5.57;2.40;;;;;;;;;;5072408;28;20036;-66
2022/01/13 03:50:23;;;;;;;4.32;2.55;;;;;;;;;;5072346;28;20025;-68
2022/01/13 03:52:59;;;;;;;7.03;2.45;;;;;;;;;;5072025;28;20055;-68
2022/01/13 03:55:36;;;;;;;6.78;2.40;;;;;;;;;;5072109;28;20029;-68
2022/01/13 03:58:29;;;;;;;9.38;2.30;;;;;;;;;;5071650;28;20111;-68
2022/01/13 04:01:22;;;;;;;3.90;1.90;;;;;;;;;;5071725;28;20035;-66
2022/01/13 04:03:48;;;;;;;4.85;2.10;;;;;;;;;;5071768;28;20028;-66
2022/01/13 04:06:13;;;;;;;6.38;2.15;;;;;;;;;;5072118;28;20037;-66
2022/01/13 04:08:40;;;;;;;3.65;1.80;;;;;;;;;;5071702;28;20025;-66
2022/01/13 04:11:05;;;;;;;4.57;2.10;;;;;;;;;;5071790;28;20025;-66
2022/01/13 04:16:27;;;;;;;4.82;2.00;;;;;;;;;;5071428;28;20522;-67
2022/01/13 04:18:55;;;;;;;6.80;1.98;;;;;;;;;;5071399;28;20099;-68
2022/01/13 04:21:21;;;;;;;7.47;2.15;;;;;;;;;;5071388;28;20471;-67
2022/01/13 04:23:47;;;;;;;8.15;2.58;;;;;;;;;;5071463;28;20031;-68
2022/01/13 04:26:16;;;;;;;6.53;2.65;;;;;;;;;;5071523;28;20020;-66
2022/01/13 04:28:42;;;;;;;6.85;3.30;;;;;;;;;;5071361;28;20111;-66
2022/01/13 04:31:08;;;;;;;7.18;2.95;;;;;;;;;;5071302;28;20100;-67
2022/01/13 04:33:35;;;;;;;6.85;2.78;;;;;;;;;;5071090;28;20397;-68
2022/01/13 04:36:02;;;;;;;7.70;3.20;;;;;;;;;;5071192;28;20033;-66
2022/01/13 04:38:27;;;;;;;8.10;3.40;;;;;;;;;;5070878;28;20028;-66
2022/01/13 04:40:58;;;;;;;8.88;3.47;;;;;;;;;;5071144;28;20033;-67
2022/01/13 04:43:24;;;;;;;;;;;;;;;;;;5071845;28;20032;-66
2022/01/13 04:45:50;;;;;;;8.23;2.88;;;;;;;;;;5071006;28;19912;-67
2022/01/13 04:48:17;;;;;;;8.00;3.30;;;;;;;;;;5070933;28;20158;-66
2022/01/13 04:50:43;;;;;;;7.57;3.20;;;;;;;;;;5070989;28;20528;-67
2022/01/13 04:53:09;;;;;;;12.20;4.35;;;;;;;;;;5070894;28;20053;-66
2022/01/13 04:55:36;;;;;;;14.18;4.20;;;;;;;;;;5070883;28;20380;-66
2022/01/13 04:58:04;;;;;;;10.65;3.75;;;;;;;;;;5070725;28;20472;-67
2022/01/13 05:00:30;;;;;;;9.20;3.38;;;;;;;;;;5071160;28;20078;-66
2022/01/13 05:02:56;;;;;;;10.43;3.65;;;;;;;;;;5070948;28;20032;-66
2022/01/13 05:05:22;;;;;;;12.50;3.85;;;;;;;;;;5070881;28;20035;-67
2022/01/13 05:07:48;;;;;;;9.65;3.10;;;;;;;;;;5069197;28;20094;-66
2022/01/13 05:10:14;;;;;;;8.48;2.78;;;;;;;;;;5070465;28;20056;-66
2022/01/13 05:12:44;;;;;;;15.43;3.42;;;;;;;;;;5070570;28;20098;-66
2022/01/13 05:15:16;;;;;;;11.30;3.08;;;;;;;;;;5070830;28;20021;-67
2022/01/13 05:18:06;;;;;;;8.57;2.70;;;;;;;;;;5070555;28;20041;-66
2022/01/13 05:20:40;;;;;;;8.65;2.67;;;;;;;;;;5070729;28;20521;-66
2022/01/13 05:23:07;;;;;;;8.40;2.80;;;;;;;;;;5070608;28;20107;-68
2022/01/13 05:25:33;;;;;;;11.27;3.38;;;;;;;;;;5070329;28;20033;-68
2022/01/13 05:27:58;;;;;;;10.70;3.22;;;;;;;;;;5070295;28;20054;-67
2022/01/13 05:30:24;;;;;;;9.35;2.95;;;;;;;;;;5070262;28;20043;-67
2022/01/13 05:32:49;;;;;;;11.48;3.55;;;;;;;;;;5070141;28;20148;-67
2022/01/13 05:35:18;;;;;;;12.68;3.67;;;;;;;;;;5068927;28;20359;-66
2022/01/13 05:37:45;;;;;;;14.13;4.25;;;;;;;;;;5070637;28;20025;-68
2022/01/13 05:40:12;;;;;;;14.23;4.18;;;;;;;;;;5070076;28;20046;-67
2022/01/13 05:42:38;;;;;;;15.68;4.45;;;;;;;;;;5070152;28;20031;-66
2022/01/13 05:45:06;;;;;;;10.50;4.00;;;;;;;;;;5070116;28;20115;-67
2022/01/13 05:47:31;;;;;;;7.05;3.17;;;;;;;;;;5070160;28;20488;-66
2022/01/13 05:49:57;;;;;;;8.18;2.40;;;;;;;;;;5070335;28;20095;-67
2022/01/13 05:52:22;;;;;;;6.47;1.92;;;;;;;;;;5070257;28;20020;-66
2022/01/13 05:54:47;;;;;;;7.13;2.10;;;;;;;;;;5070312;28;20063;-67
2022/01/13 05:57:13;;;;;;;7.00;1.90;;;;;;;;;;5069910;28;20029;-70
2022/01/13 05:59:38;;;;;;;7.78;2.97;;;;;;;;;;5069699;28;20017;-67
2022/01/13 06:02:05;;;;;;;19.15;5.60;;;;;;;;;;5070022;28;20103;-64
2022/01/13 06:04:30;;;;;;;15.25;5.25;;;;;;;;;;5068724;28;20016;-67
2022/01/13 06:06:55;;;;;;;15.20;5.35;;;;;;;;;;5070015;28;20028;-67
2022/01/13 06:09:21;;;;;;;10.73;3.60;;;;;;;;;;5069825;28;20021;-67
2022/01/13 06:11:59;;;;;;;9.95;2.88;;;;;;;;;;5069953;28;20048;-67
2022/01/13 06:14:24;;;;;;;13.13;2.70;;;;;;;;;;5069564;28;20040;-68
2022/01/13 06:16:50;;;;;;;7.65;2.70;;;;;;;;;;5069885;28;20090;-67
2022/01/13 06:19:15;;;;;;;7.50;2.53;;;;;;;;;;5069613;28;20115;-67
2022/01/13 06:21:41;;;;;;;10.35;2.85;;;;;;;;;;5070438;28;20025;-69
2022/01/13 06:24:07;;;;;;;9.75;2.58;;;;;;;;;;5069981;28;20393;-68
2022/01/13 06:26:32;;;;;;;8.93;2.67;;;;;;;;;;5070225;28;20060;-67
2022/01/13 06:28:57;;;;;;;8.27;2.50;;;;;;;;;;5069424;28;20021;-68
2022/01/13 06:31:23;;;;;;;10.23;3.13;;;;;;;;;;5069920;28;20028;-68
2022/01/13 06:33:48;;;;;;;8.07;2.25;;;;;;;;;;5069498;28;20025;-68
2022/01/13 06:36:14;;;;;;;4.65;1.85;;;;;;;;;;5069888;28;20258;-67
2022/01/13 06:38:41;;;;;;;5.32;1.98;;;;;;;;;;5069579;28;20028;-66
2022/01/13 06:41:06;;;;;;;5.90;1.98;;;;;;;;;;5069618;28;20031;-69
2022/01/13 06:43:33;;;;;;;7.22;2.15;;;;;;;;;;5069570;28;20024;-69
2022/01/13 06:45:59;;;;;;;5.28;2.13;;;;;;;;;;5072161;28;20032;-66
2022/01/13 06:48:24;;;;;;;8.73;2.10;;;;;;;;;;5073023;28;20017;-66
2022/01/13 06:50:50;;;;;;;9.77;2.05;;;;;;;;;;5073413;28;20450;-68
2022/01/13 06:53:15;;;;;;;7.93;2.20;;;;;;;;;;5073157;28;20392;-67
2022/01/13 06:55:41;;;;;;;12.77;3.50;;;;;;;;;;5073356;28;20021;-66
2022/01/13 06:58:06;;;;;;;15.10;3.40;;;;;;;;;;5073094;28;20099;-66
2022/01/13 07:00:33;;;;;;;7.50;2.38;;;;;;;;;;5072921;28;20480;-68
2022/01/13 07:03:01;;;;;;;7.88;2.20;;;;;;;;;;5072976;28;20149;-67
2022/01/13 07:05:26;;;;;;;12.95;2.97;;;;;;;;;;5072788;28;20099;-67
2022/01/13 07:07:52;;;;;;;11.60;2.80;;;;;;;;;;5072829;28;20103;-66
2022/01/13 07:10:18;;;;;;;13.90;3.28;;;;;;;;;;5072700;28;20013;-68
2022/01/13 07:12:43;;;;;;;12.07;2.95;;;;;;;;;;5073314;28;20029;-68
2022/01/13 07:15:10;;;;;;;11.43;2.70;;;;;;;;;;5072817;28;20392;-68
2022/01/13 07:17:36;;;;;;;12.98;3.17;;;;;;;;;;5072945;28;20052;-68
2022/01/13 07:20:04;;;;;;;12.35;3.55;;;;;;;;;;5072654;28;20033;-69
2022/01/13 07:22:29;;;;;;;11.32;3.38;;;;;;;;;;5072531;28;20033;-68
2022/01/13 07:24:54;;;;;;;16.50;3.90;;;;;;;;;;5072458;28;20016;-68
2022/01/13 07:27:20;;;;;;;11.43;3.38;;;;;;;;;;5073043;28;20036;-68
2022/01/13 07:29:48;;;;;;;11.77;3.97;;;;;;;;;;5072218;28;20452;-66
2022/01/13 07:32:13;;;;;;;18.30;3.80;;;;;;;;;;5072752;28;20024;-67
2022/01/13 07:34:39;;;;;;;10.70;3.00;;;;;;;;;;5072853;28;20024;-68
2022/01/13 07:37:05;;;;;;;9.18;3.15;;;;;;;;;;5072315;28;20033;-69
2022/01/13 07:39:30;;;;;;;9.82;2.97;;;;;;;;;;5072026;28;20476;-68
2022/01/13 07:41:56;;;;;;;8.18;2.70;;;;;;;;;;5072206;28;20032;-68
2022/01/13 07:44:22;;;;;;;10.00;2.80;;;;;;;;;;5072339;28;20028;-68
2022/01/13 07:46:47;;;;;;;8.93;2.70;;;;;;;;;;5072233;28;20427;-67
2022/01/13 07:49:13;;;;;;;7.68;2.80;;;;;;;;;;5072123;28;20391;-69
2022/01/13 07:51:38;;;;;;;8.27;2.90;;;;;;;;;;5072192;28;20020;-66
2022/01/13 07:54:04;;;;;;;11.20;4.05;;;;;;;;;;5071988;28;20024;-68
2022/01/13 07:56:29;;;;;;;11.32;3.55;;;;;;;;;;5071185;28;20028;-68
2022/01/13 07:58:56;;;;;;;10.48;3.40;;;;;;;;;;5071491;28;20029;-67
2022/01/13 08:01:21;;;;;;;9.43;3.58;;;;;;;;;;5072009;28;20032;-68
2022/01/13 08:03:47;;;;;;;13.45;4.05;;;;;;;;;;5071924;28;20133;-67
2022/01/13 08:06:13;;;;;;;8.93;3.20;;;;;;;;;;5071989;28;20021;-68
2022/01/13 08:08:39;;;;;;;10.77;3.63;;;;;;;;;;5071966;28;20040;-67
2022/01/13 08:11:06;;;;;;;9.13;3.30;;;;;;;;;;5071563;28;20101;-67
2022/01/13 08:13:33;;;;;;;11.63;3.80;;;;;;;;;;5071581;28;20046;-67
2022/01/13 08:16:02;;;;;;;11.93;4.32;;;;;;;;;;5071174;28;20031;-67
2022/01/13 08:21:12;;;;;;;9.40;3.30;;;;;;;;;;5071836;28;20035;-67
2022/01/13 08:23:37;;;;;;;7.75;3.30;;;;;;;;;;5071359;28;20036;-67
2022/01/13 08:26:03;;;;;;;9.50;3.40;;;;;;;;;;5071381;28;20032;-67
2022/01/13 08:28:30;;;;;;;8.13;3.22;;;;;;;;;;5071760;28;20033;-68
2022/01/13 08:30:56;;;;;;;8.35;3.00;;;;;;;;;;5070892;28;20031;-67
2022/01/13 08:33:22;;;;;;;13.00;3.00;;;;;;;;;;5071230;28;20078;-68
2022/01/13 08:35:52;;;;;;;12.00;3.20;;;;;;;;;;5071321;28;20020;-68
2022/01/13 08:38:19;;;;;;;13.38;2.90;;;;;;;;;;5071677;28;20016;-66
2022/01/13 08:40:47;;;;;;;9.63;3.38;;;;;;;;;;5071059;28;20029;-68
2022/01/13 08:43:14;;;;;;;11.55;2.75;;;;;;;;;;5071128;28;20024;-66
2022/01/13 08:45:40;;;;;;;7.93;2.80;;;;;;;;;;5070990;28;20020;-67
2022/01/13 08:48:06;;;;;;;9.02;2.65;;;;;;;;;;5070608;28;20450;-68
2022/01/13 08:50:32;;;;;;;8.63;3.13;;;;;;;;;;5070544;28;20025;-68
2022/01/13 08:52:57;;;;;;;11.80;3.72;;;;;;;;;;5070795;28;20030;-68
2022/01/13 08:55:23;;;;;;;12.07;4.05;;;;;;;;;;5071060;28;20029;-68
2022/01/13 08:57:48;;;;;;;11.10;3.97;;;;;;;;;;5070786;28;20090;-68
2022/01/13 09:00:14;;;;;;;11.98;4.13;;;;;;;;;;5070290;28;20461;-67
2022/01/13 09:02:41;;;;;;;12.23;3.92;;;;;;;;;;5070616;28;20029;-67
2022/01/13 09:05:07;;;;;;;9.68;4.07;;;;;;;;;;5070485;28;20594;-68
2022/01/13 09:07:32;;;;;;;13.50;4.63;;;;;;;;;;5070311;28;20112;-68
2022/01/13 09:09:58;;;;;;;13.30;5.03;;;;;;;;;;5069802;28;20464;-67
2022/01/13 09:12:24;;;;;;;14.48;5.55;;;;;;;;;;5070625;28;20476;-68
2022/01/13 09:14:51;;;;;;;15.60;5.45;;;;;;;;;;5070341;28;20051;-67
2022/01/13 09:17:22;;;;;;;15.45;5.72;;;;;;;;;;5070423;28;20044;-68
2022/01/13 09:19:49;;;;;;;21.60;6.20;;;;;;;;;;5070204;28;20130;-68
2022/01/13 09:22:14;;;;;;;14.73;5.72;;;;;;;;;;5070345;28;20027;-68
2022/01/13 09:24:40;;;;;;;14.98;5.53;;;;;;;;;;5070476;28;20119;-69
2022/01/13 09:27:07;;;;;;;13.50;4.93;;;;;;;;;;5071012;28;20020;-68
2022/01/13 09:29:33;;;;;;;11.68;5.10;;;;;;;;;;5070193;28;20036;-68
2022/01/13 09:31:58;;;;;;;12.57;5.40;;;;;;;;;;5070484;28;20105;-68
2022/01/13 09:34:23;;;;;;;16.77;4.78;;;;;;;;;;5070339;28;20032;-68
2022/01/13 09:36:49;;;;;;;13.00;4.68;;;;;;;;;;5070449;28;20070;-68
2022/01/13 09:39:14;;;;;;;17.48;5.50;;;;;;;;;;5070365;28;20024;-67
2022/01/13 09:41:43;;;;;;;13.80;5.07;;;;;;;;;;5070033;28;20055;-68
2022/01/13 09:44:10;;;;;;;14.65;4.93;;;;;;;;;;5070544;28;20028;-68
2022/01/13 09:46:36;;;;;;;16.08;5.20;;;;;;;;;;5070259;28;20035;-68
2022/01/13 09:49:05;;;;;;;12.50;5.07;;;;;;;;;;5070048;28;20040;-68
2022/01/13 09:51:32;;;;;;;15.77;5.22;;;;;;;;;;5070083;28;20031;-68
2022/01/13 09:53:58;;;;;;;14.73;5.57;;;;;;;;;;5068413;28;20032;-69
2022/01/13 09:56:23;;;;;;;14.43;5.60;;;;;;;;;;5069781;28;20039;-68
2022/01/13 09:58:49;;;;;;;14.15;4.97;;;;;;;;;;5069551;28;20482;-68
2022/01/13 10:01:15;;;;;;;11.45;4.50;;;;;;;;;;5069685;28;20573;-68
2022/01/13 10:03:41;;;;;;;14.43;4.40;;;;;;;;;;5070128;28;20243;-68
2022/01/13 10:06:13;;;;;;;10.02;3.58;;;;;;;;;;5070060;28;20286;-68
2022/01/13 10:08:59;;;;;;;9.50;4.10;;;;;;;;;;5069936;28;20040;-68
2022/01/13 10:11:25;;;;;;;10.20;4.20;;;;;;;;;;5069324;28;20028;-69
2022/01/13 10:16:59;;;;;;;12.00;3.03;;;;;;;;;;5062125;28;20144;-69
2022/01/13 10:19:28;;;;;;;9.65;3.08;;;;;;;;;;5070158;28;20115;-69
2022/01/13 10:22:14;;;;;;;8.52;2.70;;;;;;;;;;5073807;28;20484;-68
2022/01/13 10:24:42;;;;;;;5.93;2.28;;;;;;;;;;5073821;28;20534;-68
2022/01/13 10:27:12;;;;;;;7.32;2.38;;;;;;;;;;5073862;28;20024;-68
2022/01/13 10:29:58;;;;;;;5.25;2.38;;;;;;;;;;5073638;28;20555;-68
2022/01/13 10:32:26;;;;;;;6.65;2.33;;;;;;;;;;5074061;28;20028;-68
2022/01/13 10:35:05;;;;;;;9.18;2.25;;;;;;;;;;5073548;28;20016;-68
2022/01/13 10:37:36;;;;;;;8.10;2.13;;;;;;;;;;5073688;28;20074;-68
2022/01/13 10:40:07;;;;;;;6.63;1.95;;;;;;;;;;5073509;28;20032;-69
2022/01/13 10:44:59;;;;;;;5.97;2.20;;;;;;;;;;5073208;28;20103;-68
2022/01/13 10:47:27;;;;;;;4.75;1.80;;;;;;;;;;5073121;28;20400;-69
2022/01/13 10:49:52;;;;;;;7.10;1.98;;;;;;;;;;5073165;28;20094;-68
2022/01/13 10:52:26;;;;;;;5.20;2.15;;;;;;;;;;5073550;28;20383;-68
2022/01/13 10:55:01;;;;;;;6.20;2.10;;;;;;;;;;5073323;28;20033;-68
2022/01/13 10:57:27;;;;;;;5.95;2.30;;;;;;;;;;5073287;28;20420;-68
2022/01/13 10:59:53;;;;;;;5.57;1.80;;;;;;;;;;5072694;28;20028;-68
2022/01/13 11:02:20;;;;;;;7.20;2.38;;;;;;;;;;5072748;28;20067;-68
2022/01/13 11:04:46;;;;;;;5.72;2.60;;;;;;;;;;5072790;28;20082;-68
2022/01/13 11:07:12;;;;;;;8.00;2.58;;;;;;;;;;5073068;28;20036;-68
2022/01/13 11:09:42;;;;;;;7.50;2.70;;;;;;;;;;5072977;28;20025;-68
2022/01/13 11:12:12;;;;;;;8.93;2.60;;;;;;;;;;5072752;28;20020;-68
2022/01/13 11:14:42;;;;;;;7.95;2.72;;;;;;;;;;5072611;28;20447;-68
2022/01/13 11:17:11;;;;;;;7.50;2.33;;;;;;;;;;5072512;28;20394;-69
2022/01/13 11:19:44;;;;;;;11.25;2.40;;;;;;;;;;5072478;28;20430;-69
2022/01/13 11:22:12;;;;;;;7.40;2.25;;;;;;;;;;5072705;28;20442;-69
2022/01/13 11:24:38;;;;;;;9.43;2.70;;;;;;;;;;5072594;28;20052;-68
2022/01/13 11:27:05;;;;;;;9.35;2.17;;;;;;;;;;5073256;28;20063;-68
2022/01/13 11:29:31;;;;;;;7.43;2.20;;;;;;;;;;5072921;28;20082;-69
2022/01/13 11:31:57;;;;;;;6.47;2.10;;;;;;;;;;5071059;28;20028;-69
2022/01/13 11:34:24;;;;;;;5.18;2.10;;;;;;;;;;5072308;28;20024;-68
2022/01/13 11:36:50;;;;;;;9.02;2.00;;;;;;;;;;5072413;28;20122;-68
2022/01/13 11:39:15;;;;;;;8.68;2.30;;;;;;;;;;5072263;28;20078;-68
2022/01/13 11:42:02;;;;;;;11.77;2.55;;;;;;;;;;5072081;28;20021;-67
2022/01/13 11:44:28;;;;;;;7.10;2.50;;;;;;;;;;5072544;28;20074;-68
2022/01/13 11:46:54;;;;;;;17.83;5.20;;;;;;;;;;5072243;28;20036;-67
2022/01/13 11:49:20;;;;;;;8.90;2.70;;;;;;;;;;5072277;28;20024;-66
2022/01/13 11:51:58;;;;;;;6.00;2.08;;;;;;;;;;5071939;28;20025;-67
2022/01/13 11:54:31;;;;;;;7.78;2.00;;;;;;;;;;5071973;28;20264;-67
2022/01/13 11:57:18;;;;;;;5.82;1.83;;;;;;;;;;5072010;28;20028;-67
2022/01/13 12:00:06;;;;;;;6.78;1.52;;;;;;;;;;5071906;28;20021;-67
2022/01/13 12:02:43;;;;;;;4.53;1.40;;;;;;;;;;5071611;28;20287;-67
2022/01/13 12:05:16;;;;;;;7.97;1.80;;;;;;;;;;5072075;28;20595;-68
2022/01/13 12:07:43;;;;;;;6.93;1.70;;;;;;;;;;5071789;28;20016;-68
2022/01/13 12:10:30;;;;;;;4.72;1.40;;;;;;;;;;5071793;28;20016;-68
2022/01/13 12:12:56;;;;;;;4.05;1.45;;;;;;;;;;5063889;28;20052;-68
2022/01/13 12:15:24;;;;;;;5.30;1.70;;;;;;;;;;5071786;28;20048;-68
2022/01/13 12:17:59;;;;;;;6.85;1.50;;;;;;;;;;5071732;28;20052;-68
2022/01/13 12:20:43;;;;;;;4.28;1.60;;;;;;;;;;5071645;28;20108;-68
2022/01/13 12:23:43;;;;;;;4.55;1.38;;;;;;;;;;5071507;28;20016;-68
2022/01/13 12:26:33;;;;;;;6.28;1.65;;;;;;;;;;5071508;28;20048;-68
2022/01/13 12:29:30;;;;;;;3.90;1.60;;;;;;;;;;5071223;28;20028;-67
2022/01/13 12:32:03;;;;;;;5.57;1.60;;;;;;;;;;5071229;28;20032;-68
2022/01/13 12:34:29;;;;;;;4.90;1.48;;;;;;;;;;5071434;28;20031;-68
2022/01/13 12:36:59;;;;;;;4.50;1.70;;;;;;;;;;5071378;28;20032;-68
2022/01/13 12:39:25;;;;;;;4.43;1.38;;;;;;;;;;5071548;28;20032;-68
2022/01/13 12:42:05;;;;;;;5.85;1.60;;;;;;;;;;5071048;28;20033;-68
2022/01/13 12:47:16;;;;;;;6.68;1.63;;;;;;;;;;5071267;28;20094;-67
2022/01/13 12:49:41;;;;;;;5.57;1.48;;;;;;;;;;5071432;28;20118;-68
2022/01/13 12:52:07;;;;;;;4.80;1.50;;;;;;;;;;5070982;28;20052;-68
2022/01/13 12:54:33;;;;;;;5.57;2.33;;;;;;;;;;5071080;28;20094;-67
2022/01/13 12:57:05;;;;;;;3.97;1.60;;;;;;;;;;5071034;28;20090;-68
2022/01/13 12:59:32;;;;;;;5.53;1.23;;;;;;;;;;5070588;28;20024;-68
2022/01/13 13:01:59;;;;;;;3.50;1.30;;;;;;;;;;5070319;28;20040;-68
2022/01/13 13:04:24;;;;;;;6.82;1.60;;;;;;;;;;5070633;28;20059;-68
2022/01/13 13:06:51;;;;;;;3.92;1.50;;;;;;;;;;5070636;28;20472;-68
2022/01/13 13:09:19;;;;;;;3.45;1.42;;;;;;;;;;5070894;28;20103;-68
2022/01/13 13:11:49;;;;;;;4.68;1.52;;;;;;;;;;5070734;28;20024;-68
2022/01/13 13:14:22;;;;;;;4.82;1.40;;;;;;;;;;5070527;28;20078;-69
2022/01/13 13:16:50;;;;;;;2.45;1.20;;;;;;;;;;5070187;28;20086;-66
2022/01/13 13:19:17;;;;;;;6.20;1.30;;;;;;;;;;5070232;28;20130;-68
2022/01/13 13:21:51;;;;;;;6.03;2.20;;;;;;;;;;5070125;28;20024;-68
2022/01/13 13:24:17;;;;;;;7.25;1.77;;;;;;;;;;5070314;28;20025;-68
2022/01/13 13:26:43;;;;;;;6.65;1.55;;;;;;;;;;5070486;28;20089;-68
2022/01/13 13:29:09;;;;;;;4.70;1.50;;;;;;;;;;5070323;28;20552;-68
2022/01/13 13:31:35;;;;;;;7.60;1.63;;;;;;;;;;5070173;28;20158;-68
2022/01/13 13:34:03;;;;;;;6.20;1.52;;;;;;;;;;5070095;28;20369;-68
2022/01/13 13:36:32;;;;;;;5.18;1.40;;;;;;;;;;5070052;28;20204;-69
2022/01/13 13:39:03;;;;;;;6.60;1.38;;;;;;;;;;5070299;28;20102;-68
2022/01/13 13:41:57;;;;;;;6.78;1.50;;;;;;;;;;5070112;28;20044;-67
2022/01/13 13:44:28;;;;;;;3.42;1.30;;;;;;;;;;5068293;28;20051;-69
2022/01/13 13:46:54;;;;;;;3.58;1.40;;;;;;;;;;5070474;28;20036;-69
2022/01/13 13:49:21;;;;;;;3.30;1.40;;;;;;;;;;5068978;28;20028;-68
2022/01/13 13:52:10;;;;;;;6.50;1.60;;;;;;;;;;5069890;28;20021;-68
2022/01/13 13:54:37;;;;;;;3.72;1.30;;;;;;;;;;5069319;28;20553;-68
2022/01/13 13:57:06;;;;;;;5.07;1.65;;;;;;;;;;5070067;28;20029;-68
2022/01/13 13:59:43;;;;;;;4.90;1.60;;;;;;;;;;5069924;28;20154;-69
2022/01/13 14:02:22;;;;;;;4.50;1.50;;;;;;;;;;5070139;28;20029;-69
2022/01/13 14:04:58;;;;;;;4.88;1.38;;;;;;;;;;5070099;28;20070;-68
2022/01/13 14:07:41;;;;;;;3.35;1.25;;;;;;;;;;5069909;28;20492;-68
2022/01/13 14:10:12;;;;;;;4.47;1.30;;;;;;;;;;5069843;28;20036;-69
2022/01/13 14:12:59;;;;;;;5.25;1.50;;;;;;;;;;5069758;28;20369;-68
2022/01/13 14:15:32;;;;;;;6.80;1.55;;;;;;;;;;5069976;28;20082;-68
2022/01/13 14:18:09;;;;;;;4.30;1.40;;;;;;;;;;5069814;28;20045;-69
2022/01/13 14:20:36;;;;;;;3.67;1.40;;;;;;;;;;5070386;28;20115;-66
2022/01/13 14:23:23;;;;;;;4.85;1.30;;;;;;;;;;5069966;28;20103;-68
2022/01/13 14:25:51;;;;;;;4.82;1.40;;;;;;;;;;5069583;28;20035;-68
2022/01/13 14:28:19;;;;;;;3.45;1.27;;;;;;;;;;5069638;28;20056;-69
2022/01/13 14:30:47;;;;;;;6.30;1.20;;;;;;;;;;5068195;28;20037;-68
2022/01/13 14:33:30;;;;;;;5.93;1.30;;;;;;;;;;5069604;28;20025;-68
2022/01/13 14:36:08;;;;;;;6.30;1.75;;;;;;;;;;5069608;28;20025;-68
2022/01/13 14:38:39;;;;;;;5.25;1.20;;;;;;;;;;5069680;28;20021;-68
2022/01/13 14:41:06;;;;;;;4.53;1.33;;;;;;;;;;5069815;28;20476;-67
2022/01/13 14:43:32;;;;;;;4.90;1.52;;;;;;;;;;5069498;28;20406;-69
2022/01/13 14:46:13;;;;;;;7.43;1.55;;;;;;;;;;5069417;28;20075;-68
2022/01/13 14:48:41;;;;;;;3.90;1.58;;;;;;;;;;5069474;28;20035;-69
2022/01/13 14:51:16;;;;;;;5.28;1.50;;;;;;;;;;5069560;28;20403;-69
2022/01/13 14:53:43;;;;;;;6.25;1.48;;;;;;;;;;5069558;28;20434;-69
2022/01/13 14:56:11;;;;;;;4.85;1.33;;;;;;;;;;5069583;28;20025;-68
2022/01/13 14:58:37;;;;;;;7.35;1.30;;;;;;;;;;5069520;28;20036;-68
2022/01/13 15:01:05;;;;;;;4.35;1.70;;;;;;;;;;5069079;28;20025;-69
2022/01/13 15:03:31;;;;;;;4.35;1.60;;;;;;;;;;5069066;28;20033;-68
2022/01/13 15:05:56;;;;;;;6.15;1.48;;;;;;;;;;5070596;28;20498;-66
2022/01/13 15:08:23;;;;;;;6.28;1.58;;;;;;;;;;5073170;28;20035;-67
2022/01/13 15:10:49;;;;;;;4.97;1.50;;;;;;;;;;5073084;28;20081;-68
2022/01/13 15:13:15;;;;;;;7.75;1.60;;;;;;;;;;5072617;28;20020;-67
2022/01/13 15:15:41;;;;;;;5.18;1.50;;;;;;;;;;5073261;28;20028;-67
2022/01/13 15:18:07;;;;;;;5.75;1.60;;;;;;;;;;5073130;28;20052;-67
2022/01/13 15:20:32;;;;;;;5.40;1.67;;;;;;;;;;5073051;28;20421;-67
2022/01/13 15:22:58;;;;;;;6.43;1.55;;;;;;;;;;5072719;28;20031;-69
2022/01/13 15:25:26;;;;;;;4.03;1.40;;;;;;;;;;5072859;28;20021;-69